createdAt,value
2022-10-22T00:00:42.536Z,3.20
2022-10-22T00:03:44.336Z,3.53
2022-10-22T00:06:46.073Z,3.92
2022-10-22T00:09:48.323Z,3.70
2022-10-22T00:12:49.999Z,3.40
2022-10-22T00:15:51.712Z,3.70
2022-10-22T00:18:53.416Z,3.22
2022-10-22T00:21:55.247Z,3.65
2022-10-22T00:24:56.985Z,3.38
2022-10-22T00:27:58.675Z,3.80
2022-10-22T00:31:01.015Z,3.30
2022-10-22T00:34:02.905Z,3.25
2022-10-22T00:37:04.726Z,3.45
2022-10-22T00:40:07.049Z,3.28
2022-10-22T00:43:13.161Z,3.20
2022-10-22T00:46:14.856Z,3.15
2022-10-22T00:49:16.603Z,3.15
2022-10-22T00:52:18.605Z,3.10
2022-10-22T00:55:21.484Z,3.13
2022-10-22T00:58:28.463Z,2.78
2022-10-22T01:01:32.104Z,3.28
2022-10-22T01:04:33.892Z,3.13
2022-10-22T01:07:44.655Z,3.60
2022-10-22T01:10:59.121Z,3.08
2022-10-22T01:14:09.210Z,2.88
2022-10-22T01:17:27.335Z,3.50
2022-10-22T01:20:56.750Z,3.00
2022-10-22T01:24:27.940Z,3.28
2022-10-22T01:27:56.970Z,3.03
2022-10-22T01:30:59.627Z,3.45
2022-10-22T01:34:03.278Z,3.22
2022-10-22T01:37:05.093Z,2.65
2022-10-22T01:40:08.905Z,2.60
2022-10-22T01:43:11.558Z,2.80
2022-10-22T01:46:13.927Z,2.80
2022-10-22T01:49:26.998Z,2.78
2022-10-22T01:53:06.407Z,2.85
2022-10-22T01:56:08.042Z,2.67
2022-10-22T01:59:17.539Z,2.42
2022-10-22T02:02:41.195Z,2.97
2022-10-22T02:06:01.122Z,2.65
2022-10-22T02:09:03.819Z,3.30
2022-10-22T02:12:07.963Z,2.70
2022-10-22T02:15:12.318Z,2.78
2022-10-22T02:18:15.668Z,2.80
2022-10-22T02:21:17.646Z,2.40
2022-10-22T02:24:20.367Z,2.80
2022-10-22T02:27:30.915Z,2.88
2022-10-22T02:30:35.082Z,2.70
2022-10-22T02:33:43.831Z,2.58
2022-10-22T02:36:49.632Z,2.80
2022-10-22T02:39:53.459Z,2.65
2022-10-22T02:42:55.207Z,2.88
2022-10-22T02:45:57.071Z,2.80
2022-10-22T02:48:58.762Z,3.08
2022-10-22T02:52:00.758Z,2.60
2022-10-22T02:55:02.738Z,3.28
2022-10-22T02:58:04.431Z,2.78
2022-10-22T03:01:06.378Z,2.60
2022-10-22T03:04:08.242Z,2.33
2022-10-22T03:07:10.296Z,2.60
2022-10-22T03:10:12.031Z,2.53
2022-10-22T03:13:13.880Z,2.55
2022-10-22T03:16:15.587Z,2.55
2022-10-22T03:19:17.368Z,2.50
2022-10-22T03:22:28.184Z,2.58
2022-10-22T03:25:34.339Z,2.47
2022-10-22T03:28:37.121Z,2.28
2022-10-22T03:31:38.826Z,3.03
2022-10-22T03:34:40.613Z,2.15
2022-10-22T03:37:42.886Z,2.33
2022-10-22T03:40:46.089Z,2.33
2022-10-22T03:43:51.450Z,2.15
2022-10-22T03:46:53.368Z,2.70
2022-10-22T03:49:55.063Z,2.20
2022-10-22T03:52:58.092Z,2.33
2022-10-22T03:55:59.761Z,2.50
2022-10-22T03:59:01.726Z,2.10
2022-10-22T04:02:04.134Z,2.28
2022-10-22T04:05:06.365Z,2.63
2022-10-22T04:08:08.325Z,1.95
2022-10-22T04:11:10.757Z,2.30
2022-10-22T04:14:12.553Z,2.15
2022-10-22T04:17:14.676Z,2.17
2022-10-22T04:20:16.406Z,2.20
2022-10-22T04:23:18.130Z,2.08
2022-10-22T04:26:20.513Z,2.50
2022-10-22T04:29:22.543Z,1.95
2022-10-22T04:32:25.174Z,2.28
2022-10-22T04:35:26.900Z,2.42
2022-10-22T04:38:28.590Z,2.35
2022-10-22T04:41:33.807Z,2.00
2022-10-22T04:44:35.552Z,2.20
2022-10-22T04:47:37.439Z,1.90
2022-10-22T04:50:39.315Z,2.03
2022-10-22T04:53:41.448Z,2.35
2022-10-22T04:56:43.179Z,2.00
2022-10-22T04:59:44.876Z,2.25
2022-10-22T05:02:49.887Z,2.00
2022-10-22T05:05:51.645Z,1.98
2022-10-22T05:08:56.078Z,2.10
2022-10-22T05:11:57.838Z,1.90
2022-10-22T05:14:59.551Z,2.00
2022-10-22T05:18:01.690Z,2.33
2022-10-22T05:21:05.284Z,2.05
2022-10-22T05:24:07.380Z,2.17
2022-10-22T05:27:09.144Z,1.90
2022-10-22T05:30:11.392Z,1.90
2022-10-22T05:33:13.124Z,2.30
2022-10-22T05:36:20.793Z,1.85
2022-10-22T05:39:22.507Z,2.13
2022-10-22T05:42:24.242Z,1.77
2022-10-22T05:45:25.955Z,1.90
2022-10-22T05:48:27.699Z,1.90
2022-10-22T05:51:31.587Z,1.67
2022-10-22T05:54:33.297Z,1.92
2022-10-22T05:57:34.973Z,1.95
2022-10-22T06:00:36.732Z,2.03
2022-10-22T06:03:38.646Z,2.10
2022-10-22T06:06:44.863Z,1.95
2022-10-22T06:09:50.080Z,1.60
2022-10-22T06:12:51.775Z,1.88
2022-10-22T06:15:53.625Z,1.80
2022-10-22T06:18:55.344Z,2.13
2022-10-22T06:21:57.020Z,1.60
2022-10-22T06:24:58.715Z,1.83
2022-10-22T06:28:00.446Z,1.85
2022-10-22T06:31:03.262Z,1.95
2022-10-22T06:34:06.979Z,1.55
2022-10-22T06:37:10.511Z,1.50
2022-10-22T06:40:12.681Z,1.70
2022-10-22T06:43:15.328Z,1.92
2022-10-22T06:46:20.244Z,1.80
2022-10-22T06:49:22.141Z,1.60
2022-10-22T06:52:23.847Z,1.83
2022-10-22T06:55:25.589Z,1.40
2022-10-22T06:58:27.245Z,1.75
2022-10-22T07:01:32.356Z,1.60
2022-10-22T07:04:34.107Z,1.65
2022-10-22T07:07:35.806Z,1.73
2022-10-22T07:10:37.544Z,1.58
2022-10-22T07:13:39.607Z,1.52
2022-10-22T07:16:45.695Z,1.33
2022-10-22T07:19:49.752Z,1.40
2022-10-22T07:22:52.999Z,1.60
2022-10-22T07:29:01.661Z,1.50
2022-10-22T07:32:03.466Z,1.52
2022-10-22T07:35:05.746Z,1.50
2022-10-22T07:38:09.273Z,1.40
2022-10-22T07:41:11.214Z,1.25
2022-10-22T07:44:12.949Z,1.25
2022-10-22T07:47:14.669Z,1.25
2022-10-22T07:50:16.610Z,1.88
2022-10-22T07:53:18.545Z,1.70
2022-10-22T07:56:20.339Z,1.70
2022-10-22T07:59:22.092Z,1.42
2022-10-22T08:02:24.753Z,1.52
2022-10-22T08:05:26.506Z,1.77
2022-10-22T08:08:30.829Z,2.20
2022-10-22T08:11:33.557Z,1.85
2022-10-22T08:14:35.483Z,1.90
2022-10-22T08:17:37.180Z,1.50
2022-10-22T08:20:39.197Z,1.70
2022-10-22T08:23:40.898Z,1.60
2022-10-22T08:26:42.862Z,1.48
2022-10-22T08:29:44.555Z,1.65
2022-10-22T08:32:46.278Z,1.92
2022-10-22T08:35:50.001Z,1.83
2022-10-22T08:38:51.708Z,2.22
2022-10-22T08:42:37.447Z,1.85
2022-10-22T08:46:12.122Z,2.30
2022-10-22T08:49:21.792Z,2.20
2022-10-22T08:52:23.488Z,2.50
2022-10-22T08:55:25.972Z,2.30
2022-10-22T08:58:50.714Z,2.47
2022-10-22T09:01:54.191Z,2.30
2022-10-22T09:05:19.909Z,1.80
2022-10-22T09:08:22.783Z,1.92
2022-10-22T09:11:33.514Z,1.92
2022-10-22T09:14:35.248Z,2.20
2022-10-22T09:17:58.727Z,2.90
2022-10-22T09:21:19.096Z,2.20
2022-10-22T09:24:41.828Z,2.30
2022-10-22T09:27:44.042Z,2.25
2022-10-22T09:30:46.238Z,2.28
2022-10-22T09:33:51.028Z,1.98
2022-10-22T09:37:04.774Z,2.45
2022-10-22T09:40:06.905Z,2.45
2022-10-22T09:43:12.720Z,2.50
2022-10-22T09:46:20.836Z,2.25
2022-10-22T09:49:24.135Z,2.45
2022-10-22T09:52:30.321Z,2.10
2022-10-22T09:55:32.079Z,2.58
2022-10-22T09:58:49.144Z,2.33
2022-10-22T10:02:08.378Z,2.30
2022-10-22T10:05:25.156Z,2.13
2022-10-22T10:08:27.307Z,2.08
2022-10-22T10:11:55.995Z,2.20
2022-10-22T10:15:12.529Z,2.30
2022-10-22T10:18:55.377Z,2.42
2022-10-22T10:22:21.477Z,2.05
2022-10-22T10:25:48.174Z,2.47
2022-10-22T10:29:31.125Z,2.20
2022-10-22T10:32:39.065Z,2.25
2022-10-22T10:35:55.141Z,2.47
2022-10-22T10:39:33.402Z,2.20
2022-10-22T10:42:46.576Z,2.60
2022-10-22T10:46:23.074Z,2.13
2022-10-22T10:49:26.989Z,1.70
2022-10-22T10:52:40.470Z,1.83
2022-10-22T10:56:07.050Z,1.90
2022-10-22T10:59:51.556Z,2.20
2022-10-22T11:03:12.130Z,2.30
2022-10-22T11:06:19.392Z,2.10
2022-10-22T11:09:37.030Z,1.80
2022-10-22T11:12:44.313Z,2.40
2022-10-22T11:19:06.072Z,2.20
2022-10-22T11:23:00.452Z,2.28
2022-10-22T11:26:14.858Z,2.38
2022-10-22T11:29:27.206Z,2.15
2022-10-22T11:32:32.683Z,2.25
2022-10-22T11:35:38.735Z,2.65
2022-10-22T11:38:40.576Z,1.95
2022-10-22T11:41:45.542Z,2.53
2022-10-22T11:45:08.693Z,2.03
2022-10-22T11:48:10.364Z,2.80
2022-10-22T11:51:33.872Z,1.90
2022-10-22T11:54:37.283Z,2.40
2022-10-22T11:57:42.147Z,2.28
2022-10-22T12:00:48.872Z,2.20
2022-10-22T12:04:13.338Z,2.17
2022-10-22T12:07:54.511Z,1.92
2022-10-22T12:11:10.152Z,2.40
2022-10-22T12:14:30.849Z,2.22
2022-10-22T12:17:32.578Z,2.50
2022-10-22T12:20:34.771Z,1.90
2022-10-22T12:23:37.585Z,2.05
2022-10-22T12:26:39.328Z,2.30
2022-10-22T12:29:41.149Z,2.40
2022-10-22T12:32:42.979Z,1.92
2022-10-22T12:35:46.611Z,2.17
2022-10-22T12:38:48.333Z,2.13
2022-10-22T12:41:51.917Z,2.20
2022-10-22T12:44:56.855Z,2.05
2022-10-22T12:48:04.422Z,2.20
2022-10-22T12:54:43.827Z,1.88
2022-10-22T12:57:49.569Z,1.80
2022-10-22T13:01:01.923Z,2.17
2022-10-22T13:04:20.877Z,2.03
2022-10-22T13:07:22.612Z,2.00
2022-10-22T13:10:30.803Z,2.30
2022-10-22T13:13:43.142Z,1.73
2022-10-22T13:17:11.908Z,1.67
2022-10-22T13:20:22.014Z,2.15
2022-10-22T13:23:26.499Z,1.63
2022-10-22T13:26:34.770Z,1.63
2022-10-22T13:29:38.213Z,2.65
2022-10-22T13:32:40.023Z,1.83
2022-10-22T13:35:41.830Z,1.88
2022-10-22T13:38:44.278Z,2.10
2022-10-22T13:41:46.027Z,2.00
2022-10-22T13:44:47.866Z,1.77
2022-10-22T13:47:53.156Z,2.10
2022-10-22T13:50:55.121Z,2.15
2022-10-22T13:53:57.215Z,2.13
2022-10-22T13:56:58.918Z,2.13
2022-10-22T14:00:00.755Z,1.85
2022-10-22T14:03:02.547Z,2.15
2022-10-22T14:06:07.539Z,2.45
2022-10-22T14:09:14.890Z,2.47
2022-10-22T14:12:17.243Z,2.00
2022-10-22T14:15:21.137Z,2.35
2022-10-22T14:18:28.882Z,3.05
2022-10-22T14:21:35.533Z,2.38
2022-10-22T14:24:37.239Z,2.77
2022-10-22T14:27:39.240Z,2.60
2022-10-22T14:30:41.505Z,2.60
2022-10-22T14:33:43.383Z,2.63
2022-10-22T14:36:45.188Z,2.50
2022-10-22T14:39:51.920Z,2.72
2022-10-22T14:42:53.751Z,2.50
2022-10-22T14:45:56.106Z,2.20
2022-10-22T14:48:57.838Z,2.30
2022-10-22T14:51:59.589Z,2.58
2022-10-22T14:55:01.403Z,2.72
2022-10-22T14:58:03.163Z,2.33
2022-10-22T15:01:05.140Z,3.00
2022-10-22T15:04:06.952Z,2.40
2022-10-22T15:07:08.661Z,2.10
2022-10-22T15:10:10.545Z,2.65
2022-10-22T15:13:12.317Z,2.38
2022-10-22T15:16:16.370Z,2.85
2022-10-22T15:19:18.083Z,2.63
2022-10-22T15:22:19.896Z,2.28
2022-10-22T15:25:21.629Z,2.45
2022-10-22T15:28:24.278Z,2.40
2022-10-22T15:31:43.212Z,2.63
2022-10-22T15:34:44.922Z,2.55
2022-10-22T15:37:46.612Z,2.10
2022-10-22T15:40:48.369Z,3.33
2022-10-22T15:43:50.103Z,4.45
2022-10-22T15:46:54.696Z,4.80
2022-10-22T15:49:57.007Z,4.97
2022-10-22T15:52:58.759Z,4.13
2022-10-22T15:56:00.470Z,4.00
2022-10-22T15:59:04.041Z,3.92
2022-10-22T16:02:07.199Z,3.47
2022-10-22T16:05:09.388Z,3.70
2022-10-22T16:08:11.083Z,3.97
2022-10-22T16:11:12.970Z,3.30
2022-10-22T16:14:16.565Z,3.85
2022-10-22T16:17:18.647Z,3.75
2022-10-22T16:20:20.370Z,2.85
2022-10-22T16:23:22.573Z,3.92
2022-10-22T16:26:24.254Z,3.75
2022-10-22T16:29:26.122Z,3.10
2022-10-22T16:32:27.905Z,3.22
2022-10-22T16:35:30.003Z,3.40
2022-10-22T16:38:31.959Z,3.10
2022-10-22T16:41:37.215Z,3.13
2022-10-22T16:44:38.910Z,3.35
2022-10-22T16:47:43.026Z,3.17
2022-10-22T16:50:45.449Z,3.47
2022-10-22T16:53:47.229Z,2.85
2022-10-22T16:56:49.032Z,2.85
2022-10-22T16:59:50.998Z,3.95
2022-10-22T17:02:53.906Z,3.33
2022-10-22T17:05:59.070Z,2.80
2022-10-22T17:09:00.928Z,3.03
2022-10-22T17:12:02.761Z,3.17
2022-10-22T17:15:05.892Z,2.90
2022-10-22T17:18:07.685Z,2.80
2022-10-22T17:21:11.278Z,2.95
2022-10-22T17:24:12.996Z,2.58
2022-10-22T17:27:14.788Z,2.97
2022-10-22T17:30:22.016Z,2.58
2022-10-22T17:33:26.653Z,3.03
2022-10-22T17:36:33.252Z,2.45
2022-10-22T17:39:37.450Z,2.80
2022-10-22T17:42:39.528Z,2.45
2022-10-22T17:45:41.446Z,2.38
2022-10-22T17:48:43.297Z,2.90
2022-10-22T17:51:45.687Z,2.80
2022-10-22T17:54:48.807Z,3.00
2022-10-22T17:57:50.708Z,2.47
2022-10-22T18:00:52.470Z,3.00
2022-10-22T18:03:58.326Z,2.10
2022-10-22T18:07:00.701Z,2.40
2022-10-22T18:10:02.407Z,2.67
2022-10-22T18:13:04.137Z,2.42
2022-10-22T18:16:06.303Z,2.83
2022-10-22T18:19:08.007Z,2.92
2022-10-22T18:22:09.697Z,2.90
2022-10-22T18:25:12.678Z,2.95
2022-10-22T18:28:16.770Z,3.15
2022-10-22T18:31:20.954Z,2.70
2022-10-22T18:34:23.936Z,2.80
2022-10-22T18:37:25.919Z,2.30
2022-10-22T18:40:30.082Z,2.90
2022-10-22T18:43:31.859Z,3.00
2022-10-22T18:46:38.251Z,2.15
2022-10-22T18:49:40.115Z,2.33
2022-10-22T18:52:42.179Z,2.28
2022-10-22T18:55:44.698Z,2.67
2022-10-22T18:58:48.502Z,2.22
2022-10-22T19:01:52.701Z,2.50
2022-10-22T19:04:54.502Z,2.55
2022-10-22T19:07:56.223Z,2.22
2022-10-22T19:10:58.101Z,2.70
2022-10-22T19:13:59.816Z,2.30
2022-10-22T19:17:01.953Z,2.63
2022-10-22T19:20:04.292Z,1.70
2022-10-22T19:23:07.257Z,2.78
2022-10-22T19:26:11.984Z,2.25
2022-10-22T19:29:15.846Z,2.72
2022-10-22T19:32:19.854Z,2.53
2022-10-22T19:35:21.624Z,2.42
2022-10-22T19:38:29.473Z,2.13
2022-10-22T19:41:32.726Z,2.30
2022-10-22T19:44:34.498Z,2.63
2022-10-22T19:47:36.636Z,2.78
2022-10-22T19:50:38.457Z,2.80
2022-10-22T19:53:41.062Z,2.78
2022-10-22T19:56:42.787Z,2.42
2022-10-22T19:59:45.311Z,2.97
2022-10-22T20:02:46.983Z,3.15
2022-10-22T20:05:51.021Z,2.58
2022-10-22T20:08:55.967Z,2.35
2022-10-22T20:11:58.305Z,2.67
2022-10-22T20:15:01.562Z,2.67
2022-10-22T20:18:03.369Z,2.83
2022-10-22T20:21:07.193Z,2.50
2022-10-22T20:24:10.099Z,2.85
2022-10-22T20:27:13.475Z,3.13
2022-10-22T20:33:23.177Z,2.33
2022-10-22T20:36:26.047Z,2.80
2022-10-22T20:39:27.767Z,2.67
2022-10-22T20:42:29.462Z,2.80
2022-10-22T20:45:31.241Z,2.53
2022-10-22T20:48:33.464Z,2.85
2022-10-22T20:51:36.357Z,2.42
2022-10-22T20:54:43.970Z,2.63
2022-10-22T20:57:45.947Z,2.33
2022-10-22T21:00:48.313Z,2.67
2022-10-22T21:03:51.843Z,2.47
2022-10-22T21:06:54.616Z,2.10
2022-10-22T21:09:56.344Z,2.05
2022-10-22T21:12:58.316Z,2.22
2022-10-22T21:16:06.092Z,2.30
2022-10-22T21:19:07.795Z,2.58
2022-10-22T21:22:09.490Z,2.25
2022-10-22T21:25:11.831Z,2.72
2022-10-22T21:28:13.522Z,2.38
2022-10-22T21:31:21.554Z,2.03
2022-10-22T21:34:23.319Z,2.20
2022-10-22T21:37:25.173Z,2.45
2022-10-22T21:40:27.924Z,2.22
2022-10-22T21:43:29.619Z,2.20
2022-10-22T21:46:31.393Z,2.30
2022-10-22T21:49:33.281Z,2.30
2022-10-22T21:52:34.980Z,1.90
2022-10-22T21:55:40.921Z,2.30
2022-10-22T21:58:43.244Z,1.85
2022-10-22T22:01:45.032Z,2.30
2022-10-22T22:04:46.789Z,2.47
2022-10-22T22:07:48.479Z,2.20
2022-10-22T22:10:51.954Z,2.40
2022-10-22T22:13:54.997Z,2.13
2022-10-22T22:16:56.714Z,1.88
2022-10-22T22:19:58.479Z,1.88
2022-10-22T22:23:00.242Z,2.25
2022-10-22T22:26:02.505Z,2.10
2022-10-22T22:29:04.722Z,2.20
2022-10-22T22:32:06.506Z,2.05
2022-10-22T22:35:08.396Z,2.28
2022-10-22T22:38:10.107Z,2.25
2022-10-22T22:41:11.773Z,2.05
2022-10-22T22:44:13.844Z,1.70
2022-10-22T22:47:16.330Z,2.25
2022-10-22T22:50:18.109Z,2.13
2022-10-22T22:53:19.855Z,1.88
2022-10-22T22:56:24.436Z,2.00
2022-10-22T22:59:26.227Z,2.00
2022-10-22T23:02:27.935Z,2.33
2022-10-22T23:05:29.837Z,1.75
2022-10-22T23:08:31.812Z,1.90
2022-10-22T23:11:34.302Z,1.67
2022-10-22T23:14:36.027Z,2.20
2022-10-22T23:17:38.454Z,1.95
2022-10-22T23:20:40.169Z,2.00
2022-10-22T23:23:51.007Z,1.90
2022-10-22T23:26:54.965Z,1.98
2022-10-22T23:29:56.658Z,2.17
2022-10-22T23:32:58.389Z,2.08
2022-10-22T23:36:06.883Z,1.70
2022-10-22T23:39:11.439Z,1.90
2022-10-22T23:42:13.145Z,2.22
2022-10-22T23:45:14.968Z,2.05
2022-10-22T23:48:16.689Z,1.75
2022-10-22T23:51:18.453Z,1.80
2022-10-22T23:54:20.209Z,1.65
2022-10-22T23:57:21.943Z,2.38
